sensor_id;sensor_type;location;lat;lon;timestamp;P1;durP1;ratioP1;P2;durP2;ratioP2
8048;SDS011;20935;42.660;23.342;2023-11-21T00:00:07;20.03;;;12.57;;
8048;SDS011;20935;42.660;23.342;2023-11-21T00:02:57;18.63;;;12.50;;
8048;SDS011;20935;42.660;23.342;2023-11-21T00:05:42;18.93;;;13.13;;
8048;SDS011;20935;42.660;23.342;2023-11-21T00:08:27;20.50;;;13.60;;
8048;SDS011;20935;42.660;23.342;2023-11-21T00:11:13;21.23;;;12.73;;
8048;SDS011;20935;42.660;23.342;2023-11-21T00:14:01;19.90;;;13.30;;
8048;SDS011;20935;42.660;23.342;2023-11-21T00:16:47;23.73;;;13.33;;
8048;SDS011;20935;42.660;23.342;2023-11-21T00:19:34;21.63;;;13.17;;
8048;SDS011;20935;42.660;23.342;2023-11-21T00:22:22;23.77;;;13.67;;
8048;SDS011;20935;42.660;23.342;2023-11-21T00:25:08;20.37;;;14.23;;
8048;SDS011;20935;42.660;23.342;2023-11-21T00:27:53;18.57;;;12.50;;
8048;SDS011;20935;42.660;23.342;2023-11-21T00:30:42;22.20;;;13.43;;
8048;SDS011;20935;42.660;23.342;2023-11-21T00:33:27;21.30;;;13.77;;
8048;SDS011;20935;42.660;23.342;2023-11-21T00:36:14;17.77;;;13.07;;
8048;SDS011;20935;42.660;23.342;2023-11-21T00:39:00;19.47;;;12.70;;
8048;SDS011;20935;42.660;23.342;2023-11-21T00:41:46;19.47;;;13.13;;
8048;SDS011;20935;42.660;23.342;2023-11-21T00:44:32;25.63;;;13.50;;
8048;SDS011;20935;42.660;23.342;2023-11-21T00:47:17;21.40;;;13.60;;
8048;SDS011;20935;42.660;23.342;2023-11-21T00:50:03;18.60;;;12.87;;
8048;SDS011;20935;42.660;23.342;2023-11-21T00:52:51;21.03;;;14.17;;
8048;SDS011;20935;42.660;23.342;2023-11-21T00:55:36;18.47;;;13.13;;
8048;SDS011;20935;42.660;23.342;2023-11-21T00:58:24;21.07;;;13.40;;
8048;SDS011;20935;42.660;23.342;2023-11-21T01:01:09;19.07;;;13.17;;
8048;SDS011;20935;42.660;23.342;2023-11-21T01:03:55;24.03;;;14.00;;
8048;SDS011;20935;42.660;23.342;2023-11-21T01:06:40;18.70;;;12.57;;
8048;SDS011;20935;42.660;23.342;2023-11-21T01:09:27;21.57;;;13.23;;
8048;SDS011;20935;42.660;23.342;2023-11-21T01:12:12;21.03;;;14.47;;
8048;SDS011;20935;42.660;23.342;2023-11-21T01:14:57;19.60;;;12.63;;
8048;SDS011;20935;42.660;23.342;2023-11-21T01:17:45;18.13;;;13.03;;
8048;SDS011;20935;42.660;23.342;2023-11-21T01:20:30;19.07;;;12.80;;
8048;SDS011;20935;42.660;23.342;2023-11-21T01:23:19;23.80;;;13.47;;
8048;SDS011;20935;42.660;23.342;2023-11-21T01:26:06;16.63;;;12.50;;
8048;SDS011;20935;42.660;23.342;2023-11-21T01:28:55;19.23;;;13.00;;
8048;SDS011;20935;42.660;23.342;2023-11-21T01:31:41;18.73;;;12.07;;
8048;SDS011;20935;42.660;23.342;2023-11-21T01:34:26;19.87;;;13.07;;
8048;SDS011;20935;42.660;23.342;2023-11-21T01:37:12;18.53;;;12.43;;
8048;SDS011;20935;42.660;23.342;2023-11-21T01:40:00;16.93;;;11.47;;
8048;SDS011;20935;42.660;23.342;2023-11-21T01:42:50;19.03;;;12.90;;
8048;SDS011;20935;42.660;23.342;2023-11-21T01:45:38;16.70;;;11.80;;
8048;SDS011;20935;42.660;23.342;2023-11-21T01:48:24;21.47;;;12.43;;
8048;SDS011;20935;42.660;23.342;2023-11-21T01:51:12;20.23;;;12.33;;
8048;SDS011;20935;42.660;23.342;2023-11-21T01:54:01;16.27;;;11.80;;
8048;SDS011;20935;42.660;23.342;2023-11-21T01:56:48;16.17;;;11.73;;
8048;SDS011;20935;42.660;23.342;2023-11-21T01:59:35;20.03;;;12.17;;
8048;SDS011;20935;42.660;23.342;2023-11-21T02:02:21;22.20;;;12.47;;
8048;SDS011;20935;42.660;23.342;2023-11-21T02:05:07;20.50;;;12.20;;
8048;SDS011;20935;42.660;23.342;2023-11-21T02:07:52;21.20;;;12.73;;
8048;SDS011;20935;42.660;23.342;2023-11-21T02:10:37;15.30;;;11.33;;
8048;SDS011;20935;42.660;23.342;2023-11-21T02:13:23;19.57;;;12.37;;
8048;SDS011;20935;42.660;23.342;2023-11-21T02:16:10;17.03;;;11.33;;
8048;SDS011;20935;42.660;23.342;2023-11-21T02:18:56;18.57;;;12.43;;
8048;SDS011;20935;42.660;23.342;2023-11-21T02:21:41;16.33;;;11.07;;
8048;SDS011;20935;42.660;23.342;2023-11-21T02:24:33;19.10;;;11.70;;
8048;SDS011;20935;42.660;23.342;2023-11-21T02:27:18;19.80;;;12.53;;
8048;SDS011;20935;42.660;23.342;2023-11-21T02:30:06;18.93;;;12.33;;
8048;SDS011;20935;42.660;23.342;2023-11-21T02:32:56;17.40;;;12.07;;
8048;SDS011;20935;42.660;23.342;2023-11-21T02:35:44;16.77;;;11.73;;
8048;SDS011;20935;42.660;23.342;2023-11-21T02:38:30;17.23;;;11.73;;
8048;SDS011;20935;42.660;23.342;2023-11-21T02:41:17;18.33;;;11.90;;
8048;SDS011;20935;42.660;23.342;2023-11-21T02:44:05;19.33;;;12.73;;
8048;SDS011;20935;42.660;23.342;2023-11-21T02:46:51;19.77;;;12.80;;
8048;SDS011;20935;42.660;23.342;2023-11-21T02:49:36;18.57;;;11.80;;
8048;SDS011;20935;42.660;23.342;2023-11-21T02:52:21;17.83;;;12.50;;
8048;SDS011;20935;42.660;23.342;2023-11-21T02:55:10;23.93;;;12.83;;
8048;SDS011;20935;42.660;23.342;2023-11-21T02:57:57;25.27;;;14.10;;
8048;SDS011;20935;42.660;23.342;2023-11-21T03:00:42;19.63;;;14.37;;
8048;SDS011;20935;42.660;23.342;2023-11-21T03:03:27;17.73;;;12.73;;
8048;SDS011;20935;42.660;23.342;2023-11-21T03:06:12;18.37;;;13.33;;
8048;SDS011;20935;42.660;23.342;2023-11-21T03:09:01;18.07;;;13.13;;
8048;SDS011;20935;42.660;23.342;2023-11-21T03:11:46;19.97;;;13.30;;
8048;SDS011;20935;42.660;23.342;2023-11-21T03:14:33;24.07;;;12.67;;
8048;SDS011;20935;42.660;23.342;2023-11-21T03:17:18;17.73;;;12.20;;
8048;SDS011;20935;42.660;23.342;2023-11-21T03:20:04;20.60;;;13.13;;
8048;SDS011;20935;42.660;23.342;2023-11-21T03:22:54;22.70;;;14.50;;
8048;SDS011;20935;42.660;23.342;2023-11-21T03:25:39;27.17;;;16.90;;
8048;SDS011;20935;42.660;23.342;2023-11-21T03:28:28;22.53;;;15.33;;
8048;SDS011;20935;42.660;23.342;2023-11-21T03:31:15;23.57;;;15.07;;
8048;SDS011;20935;42.660;23.342;2023-11-21T03:34:01;21.33;;;15.03;;
8048;SDS011;20935;42.660;23.342;2023-11-21T03:36:46;23.80;;;15.90;;
8048;SDS011;20935;42.660;23.342;2023-11-21T03:39:32;22.40;;;14.67;;
8048;SDS011;20935;42.660;23.342;2023-11-21T03:42:17;23.20;;;14.43;;
8048;SDS011;20935;42.660;23.342;2023-11-21T03:45:03;27.30;;;17.87;;
8048;SDS011;20935;42.660;23.342;2023-11-21T03:47:52;25.73;;;16.50;;
8048;SDS011;20935;42.660;23.342;2023-11-21T03:50:38;31.43;;;18.73;;
8048;SDS011;20935;42.660;23.342;2023-11-21T03:53:23;29.87;;;20.20;;
8048;SDS011;20935;42.660;23.342;2023-11-21T03:56:09;32.17;;;19.33;;
8048;SDS011;20935;42.660;23.342;2023-11-21T03:58:54;28.27;;;21.37;;
8048;SDS011;20935;42.660;23.342;2023-11-21T04:01:39;29.77;;;20.53;;
8048;SDS011;20935;42.660;23.342;2023-11-21T04:04:26;40.67;;;26.77;;
8048;SDS011;20935;42.660;23.342;2023-11-21T04:07:11;55.53;;;31.73;;
8048;SDS011;20935;42.660;23.342;2023-11-21T04:09:57;39.00;;;25.43;;
8048;SDS011;20935;42.660;23.342;2023-11-21T04:12:45;34.17;;;22.83;;
8048;SDS011;20935;42.660;23.342;2023-11-21T04:15:31;34.87;;;24.47;;
8048;SDS011;20935;42.660;23.342;2023-11-21T04:18:19;39.90;;;25.60;;
8048;SDS011;20935;42.660;23.342;2023-11-21T04:21:09;44.30;;;28.07;;
8048;SDS011;20935;42.660;23.342;2023-11-21T04:23:54;34.53;;;25.93;;
8048;SDS011;20935;42.660;23.342;2023-11-21T04:26:40;32.43;;;22.90;;
8048;SDS011;20935;42.660;23.342;2023-11-21T04:29:28;37.17;;;23.20;;
8048;SDS011;20935;42.660;23.342;2023-11-21T04:32:14;28.77;;;21.33;;
8048;SDS011;20935;42.660;23.342;2023-11-21T04:34:59;36.37;;;23.30;;
8048;SDS011;20935;42.660;23.342;2023-11-21T04:37:49;31.53;;;20.90;;
8048;SDS011;20935;42.660;23.342;2023-11-21T04:40:35;53.10;;;27.60;;
8048;SDS011;20935;42.660;23.342;2023-11-21T04:43:20;45.83;;;25.17;;
8048;SDS011;20935;42.660;23.342;2023-11-21T04:46:05;36.97;;;23.17;;
8048;SDS011;20935;42.660;23.342;2023-11-21T04:48:54;36.70;;;24.07;;
8048;SDS011;20935;42.660;23.342;2023-11-21T04:51:39;33.50;;;23.27;;
8048;SDS011;20935;42.660;23.342;2023-11-21T04:54:26;30.20;;;20.17;;
8048;SDS011;20935;42.660;23.342;2023-11-21T04:57:11;35.23;;;22.33;;
8048;SDS011;20935;42.660;23.342;2023-11-21T05:00:00;35.13;;;21.70;;
8048;SDS011;20935;42.660;23.342;2023-11-21T05:02:48;28.83;;;21.73;;
8048;SDS011;20935;42.660;23.342;2023-11-21T05:05:34;34.57;;;21.80;;
8048;SDS011;20935;42.660;23.342;2023-11-21T05:08:19;32.43;;;21.10;;
8048;SDS011;20935;42.660;23.342;2023-11-21T05:11:07;30.40;;;21.33;;
8048;SDS011;20935;42.660;23.342;2023-11-21T05:13:54;43.77;;;25.90;;
8048;SDS011;20935;42.660;23.342;2023-11-21T05:16:41;33.67;;;22.73;;
8048;SDS011;20935;42.660;23.342;2023-11-21T05:19:26;32.63;;;19.63;;
8048;SDS011;20935;42.660;23.342;2023-11-21T05:22:15;39.70;;;23.33;;
8048;SDS011;20935;42.660;23.342;2023-11-21T05:25:01;46.13;;;23.67;;
8048;SDS011;20935;42.660;23.342;2023-11-21T05:27:51;38.07;;;23.73;;
8048;SDS011;20935;42.660;23.342;2023-11-21T05:30:37;30.13;;;20.90;;
8048;SDS011;20935;42.660;23.342;2023-11-21T05:33:23;48.67;;;25.43;;
8048;SDS011;20935;42.660;23.342;2023-11-21T05:36:09;40.13;;;22.90;;
8048;SDS011;20935;42.660;23.342;2023-11-21T05:38:55;51.07;;;23.80;;
8048;SDS011;20935;42.660;23.342;2023-11-21T05:41:43;43.87;;;21.70;;
8048;SDS011;20935;42.660;23.342;2023-11-21T05:44:29;39.37;;;20.83;;
8048;SDS011;20935;42.660;23.342;2023-11-21T05:47:14;35.97;;;21.97;;
8048;SDS011;20935;42.660;23.342;2023-11-21T05:50:00;36.03;;;20.23;;
8048;SDS011;20935;42.660;23.342;2023-11-21T05:52:46;35.80;;;18.73;;
8048;SDS011;20935;42.660;23.342;2023-11-21T05:55:31;25.90;;;18.20;;
8048;SDS011;20935;42.660;23.342;2023-11-21T05:58:16;42.63;;;21.93;;
8048;SDS011;20935;42.660;23.342;2023-11-21T06:01:05;34.37;;;19.77;;
8048;SDS011;20935;42.660;23.342;2023-11-21T06:03:51;35.60;;;21.53;;
8048;SDS011;20935;42.660;23.342;2023-11-21T06:06:36;38.53;;;20.07;;
8048;SDS011;20935;42.660;23.342;2023-11-21T06:09:21;36.30;;;20.33;;
8048;SDS011;20935;42.660;23.342;2023-11-21T06:12:12;23.97;;;16.10;;
8048;SDS011;20935;42.660;23.342;2023-11-21T06:15:00;27.17;;;17.77;;
8048;SDS011;20935;42.660;23.342;2023-11-21T06:17:49;34.97;;;20.73;;
8048;SDS011;20935;42.660;23.342;2023-11-21T06:20:36;32.83;;;18.87;;
8048;SDS011;20935;42.660;23.342;2023-11-21T06:23:22;22.47;;;17.07;;
8048;SDS011;20935;42.660;23.342;2023-11-21T06:26:07;23.77;;;17.50;;
8048;SDS011;20935;42.660;23.342;2023-11-21T06:28:53;25.27;;;16.23;;
8048;SDS011;20935;42.660;23.342;2023-11-21T06:31:38;29.83;;;16.77;;
8048;SDS011;20935;42.660;23.342;2023-11-21T06:34:31;26.67;;;17.43;;
8048;SDS011;20935;42.660;23.342;2023-11-21T06:37:17;27.40;;;16.83;;
8048;SDS011;20935;42.660;23.342;2023-11-21T06:40:05;23.20;;;17.20;;
8048;SDS011;20935;42.660;23.342;2023-11-21T06:42:50;25.63;;;16.50;;
8048;SDS011;20935;42.660;23.342;2023-11-21T06:45:36;26.00;;;16.20;;
8048;SDS011;20935;42.660;23.342;2023-11-21T06:48:24;23.53;;;16.67;;
8048;SDS011;20935;42.660;23.342;2023-11-21T06:51:13;22.73;;;16.20;;
8048;SDS011;20935;42.660;23.342;2023-11-21T06:53:58;24.57;;;16.23;;
8048;SDS011;20935;42.660;23.342;2023-11-21T06:56:43;21.03;;;15.23;;
8048;SDS011;20935;42.660;23.342;2023-11-21T06:59:28;26.37;;;18.00;;
8048;SDS011;20935;42.660;23.342;2023-11-21T07:02:17;23.80;;;16.13;;
8048;SDS011;20935;42.660;23.342;2023-11-21T07:05:03;26.00;;;16.03;;
8048;SDS011;20935;42.660;23.342;2023-11-21T07:07:50;29.13;;;17.23;;
8048;SDS011;20935;42.660;23.342;2023-11-21T07:10:38;23.00;;;16.30;;
8048;SDS011;20935;42.660;23.342;2023-11-21T07:13:23;24.10;;;17.30;;
8048;SDS011;20935;42.660;23.342;2023-11-21T07:16:09;30.03;;;16.67;;
8048;SDS011;20935;42.660;23.342;2023-11-21T07:18:54;28.87;;;17.33;;
8048;SDS011;20935;42.660;23.342;2023-11-21T07:21:40;26.03;;;15.73;;
8048;SDS011;20935;42.660;23.342;2023-11-21T07:24:30;26.63;;;17.23;;
8048;SDS011;20935;42.660;23.342;2023-11-21T07:27:15;24.20;;;16.20;;
8048;SDS011;20935;42.660;23.342;2023-11-21T07:30:01;21.53;;;15.83;;
8048;SDS011;20935;42.660;23.342;2023-11-21T07:32:48;30.07;;;18.13;;
8048;SDS011;20935;42.660;23.342;2023-11-21T07:35:33;24.77;;;18.07;;
8048;SDS011;20935;42.660;23.342;2023-11-21T07:38:24;22.93;;;15.53;;
8048;SDS011;20935;42.660;23.342;2023-11-21T07:41:14;23.83;;;16.43;;
8048;SDS011;20935;42.660;23.342;2023-11-21T07:43:59;19.40;;;13.37;;
8048;SDS011;20935;42.660;23.342;2023-11-21T07:46:45;19.73;;;12.23;;
8048;SDS011;20935;42.660;23.342;2023-11-21T07:49:30;19.90;;;12.60;;
8048;SDS011;20935;42.660;23.342;2023-11-21T07:52:16;18.57;;;12.13;;
8048;SDS011;20935;42.660;23.342;2023-11-21T07:55:01;19.93;;;11.77;;
8048;SDS011;20935;42.660;23.342;2023-11-21T07:57:48;14.63;;;10.97;;
8048;SDS011;20935;42.660;23.342;2023-11-21T08:00:33;16.10;;;11.97;;
8048;SDS011;20935;42.660;23.342;2023-11-21T08:03:19;25.27;;;13.70;;
8048;SDS011;20935;42.660;23.342;2023-11-21T08:06:07;22.93;;;12.20;;
8048;SDS011;20935;42.660;23.342;2023-11-21T08:08:58;23.20;;;12.47;;
8048;SDS011;20935;42.660;23.342;2023-11-21T08:11:44;19.37;;;12.13;;
8048;SDS011;20935;42.660;23.342;2023-11-21T08:14:31;20.80;;;13.40;;
8048;SDS011;20935;42.660;23.342;2023-11-21T08:17:20;19.77;;;14.13;;
8048;SDS011;20935;42.660;23.342;2023-11-21T08:20:07;28.10;;;13.30;;
8048;SDS011;20935;42.660;23.342;2023-11-21T08:22:54;17.90;;;13.27;;
8048;SDS011;20935;42.660;23.342;2023-11-21T08:25:43;22.53;;;13.97;;
8048;SDS011;20935;42.660;23.342;2023-11-21T08:28:32;24.17;;;14.57;;
8048;SDS011;20935;42.660;23.342;2023-11-21T08:31:24;29.67;;;13.37;;
8048;SDS011;20935;42.660;23.342;2023-11-21T08:34:09;17.93;;;14.40;;
8048;SDS011;20935;42.660;23.342;2023-11-21T08:36:55;18.43;;;13.47;;
8048;SDS011;20935;42.660;23.342;2023-11-21T08:39:41;22.63;;;14.17;;
8048;SDS011;20935;42.660;23.342;2023-11-21T08:42:26;21.33;;;14.03;;
8048;SDS011;20935;42.660;23.342;2023-11-21T08:45:13;24.47;;;15.03;;
8048;SDS011;20935;42.660;23.342;2023-11-21T08:48:03;19.03;;;15.27;;
8048;SDS011;20935;42.660;23.342;2023-11-21T08:50:49;23.33;;;15.00;;
8048;SDS011;20935;42.660;23.342;2023-11-21T08:53:35;27.50;;;14.95;;
8048;SDS011;20935;42.660;23.342;2023-11-21T08:56:23;28.73;;;14.37;;
8048;SDS011;20935;42.660;23.342;2023-11-21T08:59:12;22.83;;;13.57;;
8048;SDS011;20935;42.660;23.342;2023-11-21T09:01:58;25.73;;;14.23;;
8048;SDS011;20935;42.660;23.342;2023-11-21T09:04:47;28.17;;;14.80;;
8048;SDS011;20935;42.660;23.342;2023-11-21T09:07:33;18.40;;;14.23;;
8048;SDS011;20935;42.660;23.342;2023-11-21T09:10:18;19.53;;;12.50;;
8048;SDS011;20935;42.660;23.342;2023-11-21T09:13:04;22.40;;;13.03;;
8048;SDS011;20935;42.660;23.342;2023-11-21T09:15:49;18.30;;;12.77;;
8048;SDS011;20935;42.660;23.342;2023-11-21T09:18:34;18.07;;;13.27;;
8048;SDS011;20935;42.660;23.342;2023-11-21T09:21:21;21.23;;;16.37;;
8048;SDS011;20935;42.660;23.342;2023-11-21T09:24:07;27.37;;;18.37;;
8048;SDS011;20935;42.660;23.342;2023-11-21T09:26:53;37.33;;;22.63;;
8048;SDS011;20935;42.660;23.342;2023-11-21T09:29:38;31.20;;;20.67;;
8048;SDS011;20935;42.660;23.342;2023-11-21T09:32:27;34.07;;;20.20;;
8048;SDS011;20935;42.660;23.342;2023-11-21T09:35:31;30.40;;;23.00;;
8048;SDS011;20935;42.660;23.342;2023-11-21T09:38:17;30.90;;;21.73;;
8048;SDS011;20935;42.660;23.342;2023-11-21T09:41:03;36.77;;;22.37;;
8048;SDS011;20935;42.660;23.342;2023-11-21T09:43:50;31.17;;;23.23;;
8048;SDS011;20935;42.660;23.342;2023-11-21T09:46:40;36.40;;;24.40;;
8048;SDS011;20935;42.660;23.342;2023-11-21T09:49:26;33.60;;;21.93;;
8048;SDS011;20935;42.660;23.342;2023-11-21T09:52:11;30.00;;;22.57;;
8048;SDS011;20935;42.660;23.342;2023-11-21T09:55:03;28.87;;;19.30;;
8048;SDS011;20935;42.660;23.342;2023-11-21T09:57:49;29.13;;;17.73;;
8048;SDS011;20935;42.660;23.342;2023-11-21T10:00:35;25.30;;;16.93;;
8048;SDS011;20935;42.660;23.342;2023-11-21T10:03:20;24.03;;;16.63;;
8048;SDS011;20935;42.660;23.342;2023-11-21T10:06:06;25.53;;;16.57;;
8048;SDS011;20935;42.660;23.342;2023-11-21T10:08:55;32.67;;;18.73;;
8048;SDS011;20935;42.660;23.342;2023-11-21T10:11:41;30.83;;;16.93;;
8048;SDS011;20935;42.660;23.342;2023-11-21T10:14:27;26.20;;;18.07;;
8048;SDS011;20935;42.660;23.342;2023-11-21T10:17:15;28.00;;;17.50;;
8048;SDS011;20935;42.660;23.342;2023-11-21T10:20:03;24.63;;;17.37;;
8048;SDS011;20935;42.660;23.342;2023-11-21T10:22:55;25.77;;;16.33;;
8048;SDS011;20935;42.660;23.342;2023-11-21T10:25:41;27.33;;;16.30;;
8048;SDS011;20935;42.660;23.342;2023-11-21T10:28:28;20.60;;;16.30;;
8048;SDS011;20935;42.660;23.342;2023-11-21T10:31:13;24.00;;;16.30;;
8048;SDS011;20935;42.660;23.342;2023-11-21T10:34:11;21.43;;;16.77;;
8048;SDS011;20935;42.660;23.342;2023-11-21T10:36:57;26.87;;;15.70;;
8048;SDS011;20935;42.660;23.342;2023-11-21T10:39:44;23.47;;;14.53;;
8048;SDS011;20935;42.660;23.342;2023-11-21T10:42:33;19.63;;;13.17;;
8048;SDS011;20935;42.660;23.342;2023-11-21T10:45:19;17.97;;;12.40;;
8048;SDS011;20935;42.660;23.342;2023-11-21T10:48:06;20.10;;;13.03;;
8048;SDS011;20935;42.660;23.342;2023-11-21T10:50:52;20.73;;;13.20;;
8048;SDS011;20935;42.660;23.342;2023-11-21T10:53:39;18.97;;;12.87;;
8048;SDS011;20935;42.660;23.342;2023-11-21T10:56:25;15.97;;;12.83;;
8048;SDS011;20935;42.660;23.342;2023-11-21T10:59:11;18.37;;;13.10;;
8048;SDS011;20935;42.660;23.342;2023-11-21T11:01:59;20.77;;;13.97;;
8048;SDS011;20935;42.660;23.342;2023-11-21T11:04:47;21.23;;;14.57;;
8048;SDS011;20935;42.660;23.342;2023-11-21T11:07:35;20.53;;;14.33;;
8048;SDS011;20935;42.660;23.342;2023-11-21T11:10:22;18.40;;;14.43;;
8048;SDS011;20935;42.660;23.342;2023-11-21T11:13:10;19.10;;;13.60;;
8048;SDS011;20935;42.660;23.342;2023-11-21T11:15:58;22.73;;;13.40;;
8048;SDS011;20935;42.660;23.342;2023-11-21T11:18:47;22.03;;;14.60;;
8048;SDS011;20935;42.660;23.342;2023-11-21T11:21:35;19.50;;;14.07;;
8048;SDS011;20935;42.660;23.342;2023-11-21T11:24:36;21.37;;;13.43;;
8048;SDS011;20935;42.660;23.342;2023-11-21T11:27:29;18.37;;;13.63;;
8048;SDS011;20935;42.660;23.342;2023-11-21T11:30:30;19.37;;;12.73;;
8048;SDS011;20935;42.660;23.342;2023-11-21T11:33:24;22.33;;;13.57;;
8048;SDS011;20935;42.660;23.342;2023-11-21T11:36:13;18.20;;;11.90;;
8048;SDS011;20935;42.660;23.342;2023-11-21T11:38:59;16.67;;;12.40;;
8048;SDS011;20935;42.660;23.342;2023-11-21T11:41:45;17.97;;;11.33;;
8048;SDS011;20935;42.660;23.342;2023-11-21T11:44:47;19.90;;;11.93;;
8048;SDS011;20935;42.660;23.342;2023-11-21T11:47:35;23.27;;;13.07;;
8048;SDS011;20935;42.660;23.342;2023-11-21T11:50:23;21.00;;;12.13;;
8048;SDS011;20935;42.660;23.342;2023-11-21T11:53:14;20.83;;;11.97;;
8048;SDS011;20935;42.660;23.342;2023-11-21T11:56:14;19.07;;;12.97;;
8048;SDS011;20935;42.660;23.342;2023-11-21T11:59:04;20.47;;;12.73;;
8048;SDS011;20935;42.660;23.342;2023-11-21T12:01:56;18.27;;;13.53;;
8048;SDS011;20935;42.660;23.342;2023-11-21T12:04:47;19.07;;;13.93;;
8048;SDS011;20935;42.660;23.342;2023-11-21T12:07:38;22.10;;;14.63;;
8048;SDS011;20935;42.660;23.342;2023-11-21T12:10:26;21.07;;;14.43;;
8048;SDS011;20935;42.660;23.342;2023-11-21T12:13:12;20.17;;;15.00;;
8048;SDS011;20935;42.660;23.342;2023-11-21T12:15:57;22.23;;;15.27;;
8048;SDS011;20935;42.660;23.342;2023-11-21T12:18:43;21.23;;;15.13;;
8048;SDS011;20935;42.660;23.342;2023-11-21T12:21:28;26.70;;;17.27;;
8048;SDS011;20935;42.660;23.342;2023-11-21T12:24:17;23.20;;;16.63;;
8048;SDS011;20935;42.660;23.342;2023-11-21T12:27:04;27.00;;;18.60;;
8048;SDS011;20935;42.660;23.342;2023-11-21T12:29:52;28.73;;;19.17;;
8048;SDS011;20935;42.660;23.342;2023-11-21T12:32:40;22.67;;;18.00;;
8048;SDS011;20935;42.660;23.342;2023-11-21T12:35:26;29.17;;;18.83;;
8048;SDS011;20935;42.660;23.342;2023-11-21T12:38:12;27.07;;;19.73;;
8048;SDS011;20935;42.660;23.342;2023-11-21T12:40:57;29.27;;;19.97;;
8048;SDS011;20935;42.660;23.342;2023-11-21T12:43:44;29.33;;;20.50;;
8048;SDS011;20935;42.660;23.342;2023-11-21T12:46:31;31.63;;;20.50;;
8048;SDS011;20935;42.660;23.342;2023-11-21T12:49:18;27.67;;;18.67;;
8048;SDS011;20935;42.660;23.342;2023-11-21T12:52:03;28.57;;;20.60;;
8048;SDS011;20935;42.660;23.342;2023-11-21T12:54:49;26.37;;;20.50;;
8048;SDS011;20935;42.660;23.342;2023-11-21T12:57:35;34.80;;;23.10;;
8048;SDS011;20935;42.660;23.342;2023-11-21T13:00:29;30.00;;;21.57;;
8048;SDS011;20935;42.660;23.342;2023-11-21T13:03:16;28.70;;;21.33;;
8048;SDS011;20935;42.660;23.342;2023-11-21T13:06:04;35.07;;;22.57;;
8048;SDS011;20935;42.660;23.342;2023-11-21T13:08:53;35.23;;;22.47;;
8048;SDS011;20935;42.660;23.342;2023-11-21T13:11:42;33.13;;;22.50;;
8048;SDS011;20935;42.660;23.342;2023-11-21T13:14:31;35.53;;;24.37;;
8048;SDS011;20935;42.660;23.342;2023-11-21T13:17:19;32.23;;;21.67;;
8048;SDS011;20935;42.660;23.342;2023-11-21T13:20:09;33.07;;;22.37;;
8048;SDS011;20935;42.660;23.342;2023-11-21T13:23:06;32.53;;;21.87;;
8048;SDS011;20935;42.660;23.342;2023-11-21T13:25:53;41.23;;;24.30;;
8048;SDS011;20935;42.660;23.342;2023-11-21T13:28:41;35.00;;;24.63;;
8048;SDS011;20935;42.660;23.342;2023-11-21T13:31:31;35.40;;;23.50;;
8048;SDS011;20935;42.660;23.342;2023-11-21T13:34:26;34.63;;;23.53;;
8048;SDS011;20935;42.660;23.342;2023-11-21T13:37:13;39.83;;;24.23;;
8048;SDS011;20935;42.660;23.342;2023-11-21T13:40:00;31.93;;;23.17;;
8048;SDS011;20935;42.660;23.342;2023-11-21T13:42:49;34.60;;;22.27;;
8048;SDS011;20935;42.660;23.342;2023-11-21T13:45:39;26.93;;;20.10;;
8048;SDS011;20935;42.660;23.342;2023-11-21T13:48:26;38.67;;;24.23;;
8048;SDS011;20935;42.660;23.342;2023-11-21T13:51:21;33.20;;;23.03;;
8048;SDS011;20935;42.660;23.342;2023-11-21T13:54:16;30.60;;;22.90;;
8048;SDS011;20935;42.660;23.342;2023-11-21T13:57:03;39.20;;;23.47;;
8048;SDS011;20935;42.660;23.342;2023-11-21T13:59:53;32.73;;;23.27;;
8048;SDS011;20935;42.660;23.342;2023-11-21T14:02:40;31.63;;;23.70;;
8048;SDS011;20935;42.660;23.342;2023-11-21T14:05:29;35.53;;;23.83;;
8048;SDS011;20935;42.660;23.342;2023-11-21T14:08:19;33.47;;;24.30;;
8048;SDS011;20935;42.660;23.342;2023-11-21T14:11:06;34.27;;;24.13;;
8048;SDS011;20935;42.660;23.342;2023-11-21T14:13:53;34.17;;;23.83;;
8048;SDS011;20935;42.660;23.342;2023-11-21T14:16:40;33.17;;;23.23;;
8048;SDS011;20935;42.660;23.342;2023-11-21T14:19:27;31.33;;;22.87;;
8048;SDS011;20935;42.660;23.342;2023-11-21T14:22:17;31.13;;;23.37;;
8048;SDS011;20935;42.660;23.342;2023-11-21T14:25:06;36.13;;;24.40;;
8048;SDS011;20935;42.660;23.342;2023-11-21T14:27:53;33.50;;;24.73;;
8048;SDS011;20935;42.660;23.342;2023-11-21T14:30:41;33.47;;;23.93;;
8048;SDS011;20935;42.660;23.342;2023-11-21T14:33:29;30.03;;;22.53;;
8048;SDS011;20935;42.660;23.342;2023-11-21T14:36:16;37.30;;;25.10;;
8048;SDS011;20935;42.660;23.342;2023-11-21T14:39:03;34.97;;;23.80;;
8048;SDS011;20935;42.660;23.342;2023-11-21T14:41:54;35.87;;;24.67;;
8048;SDS011;20935;42.660;23.342;2023-11-21T14:44:42;34.03;;;23.83;;
8048;SDS011;20935;42.660;23.342;2023-11-21T14:47:29;38.00;;;25.77;;
8048;SDS011;20935;42.660;23.342;2023-11-21T14:50:17;38.53;;;25.47;;
8048;SDS011;20935;42.660;23.342;2023-11-21T14:53:27;38.73;;;25.93;;
8048;SDS011;20935;42.660;23.342;2023-11-21T14:56:28;37.83;;;25.23;;
8048;SDS011;20935;42.660;23.342;2023-11-21T14:59:17;34.73;;;24.60;;
8048;SDS011;20935;42.660;23.342;2023-11-21T15:02:03;41.90;;;26.03;;
8048;SDS011;20935;42.660;23.342;2023-11-21T15:05:00;36.93;;;25.57;;
8048;SDS011;20935;42.660;23.342;2023-11-21T15:07:47;35.93;;;23.33;;
8048;SDS011;20935;42.660;23.342;2023-11-21T15:10:35;44.60;;;26.23;;
8048;SDS011;20935;42.660;23.342;2023-11-21T15:13:31;34.93;;;25.10;;
8048;SDS011;20935;42.660;23.342;2023-11-21T15:16:19;41.63;;;26.97;;
8048;SDS011;20935;42.660;23.342;2023-11-21T15:19:07;39.33;;;25.87;;
8048;SDS011;20935;42.660;23.342;2023-11-21T15:21:54;38.57;;;26.70;;
8048;SDS011;20935;42.660;23.342;2023-11-21T15:24:41;36.50;;;23.40;;
8048;SDS011;20935;42.660;23.342;2023-11-21T15:27:30;37.77;;;26.57;;
8048;SDS011;20935;42.660;23.342;2023-11-21T15:30:20;36.87;;;25.17;;
8048;SDS011;20935;42.660;23.342;2023-11-21T15:33:11;42.47;;;27.17;;
8048;SDS011;20935;42.660;23.342;2023-11-21T15:36:01;38.80;;;25.07;;
8048;SDS011;20935;42.660;23.342;2023-11-21T15:38:48;42.43;;;25.77;;
8048;SDS011;20935;42.660;23.342;2023-11-21T15:41:34;40.90;;;26.87;;
8048;SDS011;20935;42.660;23.342;2023-11-21T15:44:23;36.00;;;25.20;;
8048;SDS011;20935;42.660;23.342;2023-11-21T15:47:11;40.30;;;26.57;;
8048;SDS011;20935;42.660;23.342;2023-11-21T15:49:59;53.87;;;27.27;;
8048;SDS011;20935;42.660;23.342;2023-11-21T15:52:46;41.80;;;27.40;;
8048;SDS011;20935;42.660;23.342;2023-11-21T15:55:33;39.37;;;26.90;;
8048;SDS011;20935;42.660;23.342;2023-11-21T15:58:21;39.20;;;26.07;;
8048;SDS011;20935;42.660;23.342;2023-11-21T16:01:08;43.53;;;27.87;;
8048;SDS011;20935;42.660;23.342;2023-11-21T16:03:58;45.90;;;28.00;;
8048;SDS011;20935;42.660;23.342;2023-11-21T16:06:47;49.00;;;27.90;;
8048;SDS011;20935;42.660;23.342;2023-11-21T16:09:34;49.07;;;30.67;;
8048;SDS011;20935;42.660;23.342;2023-11-21T16:12:23;49.00;;;31.23;;
8048;SDS011;20935;42.660;23.342;2023-11-21T16:15:10;51.73;;;32.57;;
8048;SDS011;20935;42.660;23.342;2023-11-21T16:17:57;50.67;;;33.40;;